Time;durP1;ratioP1;P1;durP2;ratioP2;P2;SDS_P1;SDS_P2;PMS_P1;PMS_P2;Temp;Humidity;BMP_temperature;BMP_pressure;BME280_temperature;BME280_humidity;BME280_pressure;Samples;Min_cycle;Max_cycle;Signal;HPM_P1;HPM_P2
2021/01/27 00:00:12;;;;;;;4.03;3.73;;;5.00;34.60;;;;;;5034278;28;20185;-66
2021/01/27 00:02:37;;;;;;;5.30;3.67;;;5.10;34.80;;;;;;5034132;28;20196;-64
2021/01/27 00:05:05;;;;;;;3.90;3.70;;;5.20;34.30;;;;;;5034040;28;20430;-67
2021/01/27 00:07:31;;;;;;;3.57;3.37;;;5.20;34.10;;;;;;5033793;28;20661;-66
2021/01/27 00:09:56;;;;;;;4.60;4.20;;;5.20;34.10;;;;;;5034014;28;20625;-65
2021/01/27 00:12:22;;;;;;;6.07;4.43;;;5.10;34.10;;;;;;5033910;28;20180;-66
2021/01/27 00:14:47;;;;;;;3.90;3.60;;;4.90;34.90;;;;;;5034038;28;20175;-65
2021/01/27 00:17:13;;;;;;;4.30;3.93;;;4.60;35.40;;;;;;5033532;28;20192;-66
2021/01/27 00:19:38;;;;;;;4.10;3.60;;;4.40;36.50;;;;;;5033811;28;20179;-66
2021/01/27 00:22:04;;;;;;;4.50;4.20;;;4.30;36.70;;;;;;5034000;28;20175;-64
2021/01/27 00:24:29;;;;;;;5.57;3.83;;;4.40;37.00;;;;;;5016047;28;20200;-65
2021/01/27 00:26:55;;;;;;;10.20;4.63;;;4.50;36.80;;;;;;5033628;28;20212;-65
2021/01/27 00:29:20;;;;;;;4.77;4.23;;;4.50;36.30;;;;;;5033650;28;20246;-64
2021/01/27 00:31:46;;;;;;;5.20;4.80;;;4.60;36.40;;;;;;5033549;28;20888;-64
2021/01/27 00:34:11;;;;;;;4.53;3.87;;;4.80;36.00;;;;;;5033586;28;20179;-66
2021/01/27 00:36:37;;;;;;;4.90;4.40;;;5.00;35.30;;;;;;5033461;28;20316;-66
2021/01/27 00:39:03;;;;;;;5.70;4.40;;;5.10;35.20;;;;;;5033362;28;20224;-66
2021/01/27 00:41:28;;;;;;;4.57;4.27;;;5.10;35.00;;;;;;5033507;28;20181;-65
2021/01/27 00:43:54;;;;;;;4.93;4.53;;;5.20;35.00;;;;;;5033701;28;20455;-65
2021/01/27 00:46:19;;;;;;;4.90;4.50;;;5.20;34.80;;;;;;5033589;28;20197;-65
2021/01/27 00:48:48;;;;;;;4.60;4.30;;;5.10;35.00;;;;;;5033538;28;20169;-65
2021/01/27 00:51:14;;;;;;;5.60;5.07;;;5.20;35.00;;;;;;5033880;28;20177;-64
2021/01/27 00:53:41;;;;;;;4.00;3.60;;;5.20;34.60;;;;;;5033608;28;20415;-67
2021/01/27 00:56:07;;;;;;;4.80;4.40;;;5.20;33.80;;;;;;5033299;28;20472;-64
2021/01/27 00:58:32;;;;;;;4.20;3.80;;;4.70;35.00;;;;;;5033225;28;20439;-65
2021/01/27 01:00:58;;;;;;;4.70;4.30;;;4.80;35.50;;;;;;5033198;28;20195;-67
2021/01/27 01:03:23;;;;;;;6.90;4.43;;;4.80;35.30;;;;;;5033015;28;20204;-65
2021/01/27 01:05:49;;;;;;;5.00;4.60;;;4.70;35.90;;;;;;5032967;28;20539;-68
2021/01/27 01:08:16;;;;;;;5.13;4.70;;;4.50;36.40;;;;;;5032830;28;20172;-66
2021/01/27 01:10:49;;;;;;;4.83;4.47;;;4.50;37.00;;;;;;5033130;28;20737;-65
2021/01/27 01:13:18;;;;;;;5.40;5.00;;;4.50;36.60;;;;;;5032874;28;20411;-66
2021/01/27 01:15:43;;;;;;;4.73;4.33;;;4.50;36.80;;;;;;5032725;28;20473;-66
2021/01/27 01:18:11;;;;;;;6.50;5.80;;;4.50;37.30;;;;;;5032626;28;20914;-65
2021/01/27 01:20:36;;;;;;;6.03;5.53;;;4.60;37.50;;;;;;5032803;28;20227;-64
2021/01/27 01:23:02;;;;;;;7.27;6.47;;;4.40;37.50;;;;;;5032664;28;20459;-65
2021/01/27 01:25:31;;;;;;;6.53;4.93;;;4.40;38.00;;;;;;5032640;28;20164;-65
2021/01/27 01:27:57;;;;;;;7.03;5.07;;;4.50;37.10;;;;;;5032292;28;20427;-64
2021/01/27 01:30:32;;;;;;;5.13;4.73;;;4.60;37.20;;;;;;5032531;28;20435;-66
2021/01/27 01:33:00;;;;;;;5.33;4.83;;;4.70;37.20;;;;;;5032471;28;20482;-65
2021/01/27 01:35:26;;;;;;;6.83;5.50;;;4.60;37.80;;;;;;5032489;28;20415;-66
2021/01/27 01:37:52;;;;;;;6.00;5.50;;;4.60;37.60;;;;;;5032266;28;20581;-65
2021/01/27 01:40:27;;;;;;;6.50;5.90;;;4.50;38.00;;;;;;5032331;28;20223;-64
2021/01/27 01:43:11;;;;;;;6.30;5.80;;;4.60;38.10;;;;;;5032197;28;20451;-64
2021/01/27 01:45:55;;;;;;;6.43;5.83;;;4.50;38.00;;;;;;5031642;28;20415;-66
2021/01/27 01:48:23;;;;;;;5.90;5.40;;;4.50;38.00;;;;;;5031988;28;20498;-64
2021/01/27 01:51:07;;;;;;;5.93;5.53;;;4.50;38.00;;;;;;5032249;28;20914;-64
2021/01/27 01:53:33;;;;;;;6.17;5.73;;;4.60;37.70;;;;;;5032152;28;20403;-64
2021/01/27 01:56:02;;;;;;;8.13;5.60;;;4.50;37.80;;;;;;5031974;28;20523;-64
2021/01/27 01:58:27;;;;;;;6.10;5.60;;;4.40;38.00;;;;;;5031858;28;20177;-64
2021/01/27 02:00:57;;;;;;;5.60;5.10;;;4.20;38.60;;;;;;5032171;28;20449;-64
2021/01/27 02:03:23;;;;;;;6.50;6.00;;;4.50;38.00;;;;;;5032016;28;20461;-64
2021/01/27 02:05:49;;;;;;;8.10;5.70;;;4.70;37.30;;;;;;5031756;28;20415;-64
2021/01/27 02:08:16;;;;;;;7.23;6.00;;;4.70;37.30;;;;;;5031716;28;20403;-65
2021/01/27 02:10:42;;;;;;;6.93;5.13;;;4.70;36.70;;;;;;5031901;28;20399;-68
2021/01/27 02:13:35;;;;;;;5.40;5.00;;;4.50;37.10;;;;;;5031866;28;20542;-64
2021/01/27 02:16:09;;;;;;;5.77;5.00;;;4.50;36.70;;;;;;5031712;28;20645;-65
2021/01/27 02:18:56;;;;;;;7.30;5.33;;;4.30;37.50;;;;;;5031697;28;20403;-65
2021/01/27 02:21:48;;;;;;;5.83;5.33;;;4.30;37.90;;;;;;5031620;28;20411;-65
2021/01/27 02:24:26;;;;;;;6.47;4.53;;;4.20;38.20;;;;;;5031440;28;20961;-67
2021/01/27 02:27:03;;;;;;;6.37;5.77;;;4.10;38.60;;;;;;5031462;28;20423;-66
2021/01/27 02:29:55;;;;;;;5.47;5.07;;;4.00;39.20;;;;;;5031535;28;20831;-65
2021/01/27 02:32:42;;;;;;;6.07;5.47;;;4.10;39.00;;;;;;5031628;28;20949;-65
2021/01/27 02:35:22;;;;;;;5.53;5.13;;;4.00;39.00;;;;;;5031379;28;20878;-64
2021/01/27 02:38:07;;;;;;;5.03;4.63;;;4.20;38.50;;;;;;5031018;28;20565;-66
2021/01/27 02:41:00;;;;;;;5.90;5.40;;;4.10;38.40;;;;;;5031135;28;20436;-66
2021/01/27 02:43:39;;;;;;;7.30;4.90;;;4.40;38.80;;;;;;5031192;28;20443;-67
2021/01/27 02:46:15;;;;;;;6.00;5.57;;;4.60;38.10;;;;;;5031147;28;20509;-67
2021/01/27 02:48:57;;;;;;;6.67;5.87;;;4.70;37.50;;;;;;5030982;28;20903;-65
2021/01/27 02:51:46;;;;;;;4.90;4.50;;;4.80;37.10;;;;;;5031129;28;20404;-67
2021/01/27 02:54:20;;;;;;;6.83;5.50;;;4.70;36.80;;;;;;5020461;28;20431;-65
2021/01/27 02:56:59;;;;;;;5.53;5.10;;;4.50;37.40;;;;;;5030347;28;20477;-66
2021/01/27 02:59:49;;;;;;;5.33;4.93;;;4.60;37.70;;;;;;5030919;28;20498;-66
2021/01/27 03:02:30;;;;;;;5.80;5.20;;;4.80;37.50;;;;;;5031047;28;20846;-66
2021/01/27 03:05:23;;;;;;;5.20;4.80;;;4.60;37.10;;;;;;5030991;28;20416;-66
2021/01/27 03:07:53;;;;;;;6.03;5.43;;;4.70;37.60;;;;;;5029809;28;20439;-67
2021/01/27 03:10:27;;;;;;;5.70;5.20;;;4.90;36.90;;;;;;5030872;28;20434;-65
2021/01/27 03:12:53;;;;;;;5.80;5.20;;;4.90;37.10;;;;;;5030838;28;20419;-67
2021/01/27 03:15:21;;;;;;;5.70;5.10;;;5.00;36.50;;;;;;5030861;28;20411;-67
2021/01/27 03:17:55;;;;;;;7.00;6.00;;;5.00;36.80;;;;;;5030516;28;20196;-65
2021/01/27 03:20:31;;;;;;;5.90;5.40;;;4.90;36.40;;;;;;5030812;28;20400;-66
2021/01/27 03:23:15;;;;;;;5.80;5.30;;;5.00;37.00;;;;;;5030583;28;20458;-64
2021/01/27 03:26:06;;;;;;;5.83;5.33;;;5.20;36.50;;;;;;5030811;28;20529;-65
2021/01/27 03:28:38;;;;;;;5.77;5.20;;;5.20;35.70;;;;;;5030599;28;20410;-65
2021/01/27 03:31:03;;;;;;;6.37;5.73;;;5.00;36.50;;;;;;5030768;28;20429;-67
2021/01/27 03:33:42;;;;;;;6.30;5.70;;;5.20;36.10;;;;;;5030710;28;20886;-65
2021/01/27 03:36:11;;;;;;;5.77;5.37;;;5.20;35.90;;;;;;5030704;28;20283;-66
2021/01/27 03:38:41;;;;;;;6.33;5.70;;;5.10;36.90;;;;;;5030442;28;20415;-64
2021/01/27 03:41:31;;;;;;;9.50;5.43;;;5.40;35.70;;;;;;5030834;28;20989;-64
2021/01/27 03:44:13;;;;;;;5.57;5.07;;;5.40;35.90;;;;;;5030473;28;20454;-65
2021/01/27 03:46:45;;;;;;;5.87;5.40;;;5.30;35.70;;;;;;5030609;28;20870;-64
2021/01/27 03:49:29;;;;;;;6.37;5.77;;;5.10;37.10;;;;;;5030310;28;20404;-64
2021/01/27 03:52:30;;;;;;;6.77;6.13;;;5.20;36.20;;;;;;5030425;28;20399;-65
2021/01/27 03:55:01;;;;;;;6.30;5.80;;;5.10;36.30;;;;;;5026219;28;20416;-65
2021/01/27 03:57:32;;;;;;;6.57;5.90;;;5.20;36.50;;;;;;5030211;28;20423;-65
2021/01/27 03:59:58;;;;;;;7.83;5.93;;;5.10;36.20;;;;;;5012744;28;21021;-65
2021/01/27 04:02:23;;;;;;;5.70;5.20;;;5.10;36.70;;;;;;5030322;28;20494;-67
2021/01/27 04:04:49;;;;;;;6.30;5.77;;;5.10;37.00;;;;;;5030352;28;20196;-64
2021/01/27 04:07:16;;;;;;;5.77;5.30;;;5.00;37.00;;;;;;5030070;28;20668;-65
2021/01/27 04:09:42;;;;;;;6.17;5.67;;;5.10;37.00;;;;;;5033152;28;20442;-64
2021/01/27 04:12:08;;;;;;;6.27;5.77;;;5.00;37.00;;;;;;5034061;28;20407;-64
2021/01/27 04:14:35;;;;;;;6.07;5.57;;;4.90;37.30;;;;;;5034025;28;20414;-65
2021/01/27 04:17:10;;;;;;;5.93;5.17;;;5.00;38.50;;;;;;5033732;28;20193;-65
2021/01/27 04:19:36;;;;;;;6.27;5.63;;;5.10;37.00;;;;;;5033893;28;20419;-65
2021/01/27 04:22:01;;;;;;;6.30;5.77;;;5.10;37.00;;;;;;5033871;28;20935;-65
2021/01/27 04:24:27;;;;;;;6.40;5.90;;;5.10;37.30;;;;;;5033634;28;20250;-65
2021/01/27 04:26:52;;;;;;;5.70;4.87;;;5.20;36.40;;;;;;5033752;28;20258;-65
2021/01/27 04:29:18;;;;;;;6.17;5.67;;;5.20;35.80;;;;;;5033451;28;20168;-66
2021/01/27 04:31:43;;;;;;;6.30;5.70;;;5.30;35.50;;;;;;5033684;28;20200;-66
2021/01/27 04:34:09;;;;;;;5.77;5.27;;;5.10;35.40;;;;;;5033610;28;20177;-66
2021/01/27 04:36:34;;;;;;;5.77;5.27;;;5.00;35.60;;;;;;5033586;28;20201;-65
2021/01/27 04:39:00;;;;;;;5.67;5.27;;;4.90;35.70;;;;;;5033234;28;20600;-65
2021/01/27 04:41:26;;;;;;;5.40;4.90;;;4.90;35.90;;;;;;5033598;28;20216;-65
2021/01/27 04:43:53;;;;;;;6.23;5.30;;;4.90;36.30;;;;;;5033350;28;20613;-66
2021/01/27 04:46:44;;;;;;;4.50;4.20;;;4.90;35.80;;;;;;5033467;28;20214;-64
2021/01/27 04:49:18;;;;;;;4.77;4.47;;;5.20;35.40;;;;;;5033110;28;20423;-66
2021/01/27 04:52:05;;;;;;;6.83;5.10;;;5.30;34.80;;;;;;5033675;28;20904;-65
2021/01/27 04:54:55;;;;;;;4.80;4.50;;;5.30;34.40;;;;;;5033406;28;20440;-65
2021/01/27 04:57:35;;;;;;;5.00;4.40;;;5.30;34.50;;;;;;5033190;28;20951;-66
2021/01/27 05:00:27;;;;;;;5.07;4.67;;;5.20;34.70;;;;;;5033193;28;20403;-65
2021/01/27 05:03:14;;;;;;;7.37;4.60;;;5.20;34.50;;;;;;5033055;28;20458;-66
2021/01/27 05:05:47;;;;;;;4.83;4.43;;;4.90;35.40;;;;;;5032882;28;20411;-66
2021/01/27 05:08:17;;;;;;;5.27;4.80;;;4.90;34.90;;;;;;5033009;28;20847;-66
2021/01/27 05:10:59;;;;;;;6.80;4.20;;;4.80;35.10;;;;;;5015279;28;20475;-65
2021/01/27 05:13:38;;;;;;;5.23;3.73;;;4.70;36.00;;;;;;5032974;28;20550;-66
2021/01/27 05:16:14;;;;;;;6.53;4.97;;;4.70;35.40;;;;;;5032911;28;20427;-66
2021/01/27 05:18:39;;;;;;;4.97;4.37;;;4.50;36.10;;;;;;5032774;28;20811;-66
2021/01/27 05:21:15;;;;;;;3.97;3.77;;;4.40;35.80;;;;;;5031735;28;20447;-67
2021/01/27 05:23:41;;;;;;;4.47;4.07;;;4.20;37.50;;;;;;5032630;28;20234;-67
2021/01/27 05:26:10;;;;;;;4.23;3.93;;;4.40;36.80;;;;;;5032483;28;20958;-66
2021/01/27 05:28:44;;;;;;;5.57;5.07;;;4.40;36.40;;;;;;5032512;28;20176;-65
2021/01/27 05:31:09;;;;;;;5.57;4.00;;;3.80;38.00;;;;;;5032522;28;20930;-67
2021/01/27 05:33:41;;;;;;;4.60;4.20;;;3.70;38.00;;;;;;5032559;28;20454;-65
2021/01/27 05:36:08;;;;;;;5.50;3.67;;;4.00;37.70;;;;;;5032217;28;20212;-67
2021/01/27 05:38:34;;;;;;;4.20;3.80;;;4.30;37.10;;;;;;5032141;28;20505;-67
2021/01/27 05:41:25;;;;;;;4.30;4.00;;;4.30;36.60;;;;;;5032019;28;20467;-67
2021/01/27 05:43:54;;;;;;;4.20;3.90;;;4.10;36.80;;;;;;5022867;28;20307;-67
2021/01/27 05:46:26;;;;;;;6.30;4.73;;;4.00;37.30;;;;;;5032132;28;20423;-66
2021/01/27 05:48:52;;;;;;;4.57;4.23;;;4.20;36.90;;;;;;5031860;28;20408;-66
2021/01/27 05:51:35;;;;;;;4.87;4.50;;;4.10;37.10;;;;;;5032085;28;20418;-66
2021/01/27 05:54:19;;;;;;;4.73;4.10;;;4.40;36.30;;;;;;5032115;28;20412;-68
2021/01/27 05:56:44;;;;;;;5.47;4.83;;;4.50;35.90;;;;;;5031897;28;20446;-66
2021/01/27 05:59:20;;;;;;;5.53;4.20;;;4.60;35.60;;;;;;5031933;28;20407;-66
2021/01/27 06:01:48;;;;;;;4.33;3.90;;;4.60;35.40;;;;;;5031879;28;20245;-66
2021/01/27 06:04:16;;;;;;;4.73;4.43;;;4.40;35.70;;;;;;5032019;28;20461;-66
2021/01/27 06:06:56;;;;;;;5.03;4.60;;;4.30;35.90;;;;;;5031847;28;20511;-66
2021/01/27 06:09:35;;;;;;;4.70;4.30;;;4.50;35.40;;;;;;5031548;28;20415;-67
2021/01/27 06:12:29;;;;;;;5.77;5.17;;;4.40;35.70;;;;;;5031652;28;20404;-65
2021/01/27 06:15:03;;;;;;;4.63;3.83;;;4.40;35.60;;;;;;5031719;28;20403;-66
2021/01/27 06:17:39;;;;;;;3.70;3.40;;;4.70;35.80;;;;;;5031181;28;20427;-68
2021/01/27 06:20:16;;;;;;;6.50;4.40;;;4.70;35.00;;;;;;5031502;28;20403;-66
2021/01/27 06:22:57;;;;;;;7.00;3.90;;;4.50;35.60;;;;;;5031289;28;20431;-66
2021/01/27 06:25:44;;;;;;;3.67;3.37;;;4.50;36.10;;;;;;5031400;28;20400;-67
2021/01/27 06:28:47;;;;;;;3.47;3.17;;;4.50;35.70;;;;;;5031305;28;20409;-67
2021/01/27 06:31:16;;;;;;;4.90;4.40;;;5.80;55.10;;;;;;5031159;28;20909;-67
2021/01/27 06:33:50;;;;;;;4.03;3.70;;;6.60;45.80;;;;;;5031578;28;20786;-66
2021/01/27 06:36:47;;;;;;;5.00;4.03;;;7.80;40.80;;;;;;5031111;28;20431;-67
2021/01/27 06:39:30;;;;;;;8.50;4.17;;;8.10;35.20;;;;;;5030829;28;20430;-67
2021/01/27 06:42:05;;;;;;;4.43;3.60;;;7.20;29.00;;;;;;5031104;28;20764;-66
2021/01/27 06:44:46;;;;;;;5.20;4.70;;;5.70;31.40;;;;;;5030771;28;20455;-66
2021/01/27 06:47:31;;;;;;;4.90;3.97;;;5.10;33.60;;;;;;5030511;28;20943;-66
2021/01/27 06:50:22;;;;;;;8.73;4.53;;;5.20;34.10;;;;;;5030622;28;20413;-66
2021/01/27 06:53:12;;;;;;;4.10;3.80;;;5.30;34.60;;;;;;5030424;28;20560;-66
2021/01/27 06:55:55;;;;;;;3.77;3.47;;;4.90;34.60;;;;;;5030439;28;20997;-66
2021/01/27 06:58:20;;;;;;;5.53;3.73;;;4.90;34.10;;;;;;5030222;28;20435;-69
2021/01/27 07:01:07;;;;;;;6.00;4.73;;;4.70;34.80;;;;;;5030311;28;20783;-66
2021/01/27 07:04:10;;;;;;;5.43;4.37;;;4.70;35.20;;;;;;5030530;28;20201;-66
2021/01/27 07:07:09;;;;;;;4.33;4.03;;;4.60;35.10;;;;;;5030567;28;20944;-66
2021/01/27 07:10:01;;;;;;;6.47;4.83;;;4.60;35.50;;;;;;5030865;28;20399;-67
2021/01/27 07:12:36;;;;;;;5.70;4.50;;;4.70;35.00;;;;;;5030934;28;20491;-67
2021/01/27 07:15:04;;;;;;;5.30;4.93;;;4.70;34.60;;;;;;5031109;28;20434;-67
2021/01/27 07:17:52;;;;;;;6.20;4.60;;;4.70;35.10;;;;;;5030645;28;20504;-66
2021/01/27 07:20:22;;;;;;;4.93;4.53;;;4.60;35.00;;;;;;5030595;28;20400;-66
2021/01/27 07:23:07;;;;;;;4.17;3.80;;;4.70;35.00;;;;;;5030610;28;20454;-66
2021/01/27 07:25:53;;;;;;;3.87;3.33;;;4.90;34.40;;;;;;5030538;28;20399;-66
2021/01/27 07:28:31;;;;;;;6.10;3.47;;;5.00;33.70;;;;;;5030416;28;20411;-66
2021/01/27 07:31:11;;;;;;;6.00;4.00;;;4.80;34.70;;;;;;5030633;28;20396;-67
2021/01/27 07:34:18;;;;;;;3.90;3.50;;;4.90;34.20;;;;;;5030504;28;20764;-66
2021/01/27 07:37:03;;;;;;;4.47;4.03;;;4.90;35.30;;;;;;4949757;29;20551;-66
2021/01/27 07:39:51;;;;;;;4.70;4.00;;;5.20;34.20;;;;;;5024418;28;20530;-66
2021/01/27 07:42:22;;;;;;;4.40;3.90;;;5.10;33.80;;;;;;5030365;28;20407;-66
2021/01/27 07:44:54;;;;;;;5.53;3.80;;;5.20;34.50;;;;;;5033649;28;20524;-65
2021/01/27 07:47:46;;;;;;;5.40;3.27;;;5.30;34.60;;;;;;5033838;28;20441;-66
2021/01/27 07:50:14;;;;;;;2.80;2.70;;;5.40;35.10;;;;;;5034486;28;20414;-66
2021/01/27 07:53:07;;;;;;;4.60;3.27;;;5.30;35.30;;;;;;5031810;28;20426;-65
2021/01/27 07:55:47;;;;;;;4.10;3.73;;;5.50;36.10;;;;;;5033926;28;20510;-65
2021/01/27 07:58:24;;;;;;;4.00;3.60;;;5.50;36.30;;;;;;5033534;28;20468;-67
2021/01/27 08:01:03;;;;;;;3.60;3.40;;;5.50;36.50;;;;;;5033850;28;20411;-64
2021/01/27 08:04:08;;;;;;;4.13;3.73;;;5.30;37.70;;;;;;5033989;28;20459;-66
2021/01/27 08:06:44;;;;;;;3.70;3.40;;;5.30;38.70;;;;;;5031905;28;20505;-66
2021/01/27 08:09:11;;;;;;;3.90;3.60;;;5.10;39.10;;;;;;5033816;28;20495;-67
2021/01/27 08:11:43;;;;;;;4.10;3.53;;;5.30;38.70;;;;;;5033858;28;20414;-66
2021/01/27 08:14:13;;;;;;;3.73;3.40;;;4.90;40.20;;;;;;5033852;28;20502;-66
2021/01/27 08:16:44;;;;;;;3.70;3.50;;;5.20;40.00;;;;;;5033789;28;20812;-65
2021/01/27 08:19:13;;;;;;;4.13;3.70;;;5.00;40.20;;;;;;5033635;28;20410;-67
2021/01/27 08:21:58;;;;;;;3.30;3.10;;;5.20;40.50;;;;;;5033458;28;20420;-66
2021/01/27 08:24:39;;;;;;;3.07;2.87;;;5.20;39.40;;;;;;5033751;28;20462;-66
2021/01/27 08:27:10;;;;;;;4.10;3.80;;;4.90;40.90;;;;;;5033342;28;20447;-65
2021/01/27 08:29:36;;;;;;;4.27;3.60;;;4.90;41.90;;;;;;5033417;28;20403;-65
2021/01/27 08:32:31;;;;;;;4.83;3.57;;;5.10;41.10;;;;;;5033627;28;20491;-66
2021/01/27 08:35:05;;;;;;;4.00;3.70;;;5.00;41.10;;;;;;5033511;28;20445;-66
2021/01/27 08:37:33;;;;;;;3.40;3.20;;;4.70;42.10;;;;;;5033307;28;20440;-65
2021/01/27 08:40:17;;;;;;;4.23;3.83;;;4.60;42.50;;;;;;5033261;28;20434;-66
2021/01/27 08:42:53;;;;;;;4.07;3.87;;;4.70;43.40;;;;;;5033191;28;20443;-67
2021/01/27 08:45:21;;;;;;;3.87;3.57;;;4.60;44.20;;;;;;5033189;28;20426;-65
2021/01/27 08:47:51;;;;;;;3.50;3.30;;;4.30;44.00;;;;;;5033192;28;20569;-66
2021/01/27 08:50:44;;;;;;;4.23;3.93;;;4.30;45.50;;;;;;5033259;28;20764;-67
2021/01/27 08:53:18;;;;;;;3.67;3.43;;;4.20;45.60;;;;;;5033473;28;20825;-65
2021/01/27 08:55:46;;;;;;;3.10;2.90;;;4.00;46.10;;;;;;5031509;28;20465;-67
2021/01/27 08:58:37;;;;;;;8.00;5.80;;;3.90;47.40;;;;;;5032800;28;20756;-65
2021/01/27 09:01:33;;;;;;;4.10;3.80;;;3.70;47.60;;;;;;5033055;28;20442;-66
2021/01/27 09:04:00;;;;;;;4.27;3.80;;;3.80;49.20;;;;;;5032870;28;20895;-66
2021/01/27 09:06:30;;;;;;;3.33;3.13;;;3.80;47.80;;;;;;5032650;28;20431;-66
2021/01/27 09:09:13;;;;;;;4.90;4.50;;;4.00;48.40;;;;;;5032892;28;20434;-65
2021/01/27 09:11:39;;;;;;;4.50;4.20;;;4.00;47.40;;;;;;5032856;28;20462;-66
2021/01/27 09:14:10;;;;;;;5.93;4.50;;;3.90;47.30;;;;;;5032884;28;20491;-66
2021/01/27 09:16:38;;;;;;;4.73;4.33;;;4.00;47.40;;;;;;5032090;28;20879;-66
2021/01/27 09:19:12;;;;;;;4.30;3.90;;;4.50;46.00;;;;;;5032421;28;20489;-68
2021/01/27 09:21:38;;;;;;;4.17;3.87;;;4.70;46.00;;;;;;5032628;28;20443;-67
2021/01/27 09:24:16;;;;;;;4.27;3.97;;;4.20;46.90;;;;;;5032522;28;20882;-68
2021/01/27 09:26:45;;;;;;;4.17;3.87;;;4.30;47.30;;;;;;5032532;28;20426;-68
2021/01/27 09:29:26;;;;;;;4.53;3.87;;;4.10;46.70;;;;;;5030960;28;20945;-68
2021/01/27 09:31:52;;;;;;;7.27;5.00;;;4.10;47.50;;;;;;5026720;28;20408;-69
2021/01/27 09:34:21;;;;;;;4.23;3.93;;;3.80;47.80;;;;;;5030710;28;20782;-68
2021/01/27 09:36:48;;;;;;;4.43;4.00;;;4.10;47.60;;;;;;5031853;28;20474;-69
2021/01/27 09:39:24;;;;;;;4.70;4.30;;;4.10;47.20;;;;;;5031861;28;20435;-69
2021/01/27 09:41:50;;;;;;;5.03;4.53;;;4.00;47.40;;;;;;5031927;28;20479;-69
2021/01/27 09:44:25;;;;;;;4.70;4.33;;;3.60;48.90;;;;;;5031746;28;20502;-68
2021/01/27 09:46:51;;;;;;;5.27;4.87;;;3.80;49.00;;;;;;5026345;28;20291;-68
2021/01/27 09:49:17;;;;;;;4.87;4.47;;;3.80;48.70;;;;;;5031229;28;20538;-67
2021/01/27 09:51:51;;;;;;;5.60;4.50;;;4.20;47.60;;;;;;5031965;28;20165;-67
2021/01/27 09:54:19;;;;;;;4.50;4.20;;;4.40;47.20;;;;;;5031716;28;20442;-67
2021/01/27 09:56:45;;;;;;;5.40;4.90;;;4.10;47.50;;;;;;5031484;28;20509;-68
2021/01/27 09:59:17;;;;;;;4.17;3.77;;;4.10;48.20;;;;;;5030841;28;20468;-68
2021/01/27 10:01:47;;;;;;;4.47;4.07;;;3.50;49.00;;;;;;5031033;28;20426;-67
2021/01/27 10:04:29;;;;;;;4.80;4.60;;;3.50;49.50;;;;;;5031624;28;20961;-67
2021/01/27 10:07:19;;;;;;;4.80;4.40;;;3.70;49.70;;;;;;5030841;28;20431;-67
2021/01/27 10:09:50;;;;;;;4.23;3.93;;;3.50;48.80;;;;;;5031249;28;20771;-66
2021/01/27 10:12:26;;;;;;;4.83;4.43;;;3.30;50.10;;;;;;5031402;28;20412;-67
2021/01/27 10:15:08;;;;;;;4.30;3.87;;;3.30;50.50;;;;;;5031581;28;20413;-68
2021/01/27 10:17:34;;;;;;;4.70;4.40;;;3.20;50.30;;;;;;5031180;28;20434;-68
2021/01/27 10:20:28;;;;;;;5.57;4.10;;;3.40;51.30;;;;;;5031655;28;20412;-66
2021/01/27 10:22:59;;;;;;;4.50;4.10;;;3.30;50.80;;;;;;5022451;28;20212;-70
2021/01/27 10:25:30;;;;;;;4.13;3.87;;;3.20;51.10;;;;;;5023120;28;20488;-71
2021/01/27 10:28:06;;;;;;;4.57;4.00;;;3.10;51.80;;;;;;5014160;28;20461;-68
2021/01/27 10:30:42;;;;;;;4.10;3.90;;;3.30;50.60;;;;;;5015301;28;20435;-67
2021/01/27 10:33:42;;;;;;;3.60;3.40;;;3.60;50.20;;;;;;5015606;28;20542;-67
2021/01/27 10:36:46;;;;;;;4.30;3.90;;;3.60;49.40;;;;;;5014544;28;20443;-73
2021/01/27 10:39:17;;;;;;;8.93;3.33;;;3.50;48.10;;;;;;4916072;29;20491;-68
2021/01/27 10:41:45;;;;;;;5.50;3.47;;;3.50;49.70;;;;;;4917600;29;20452;-67
2021/01/27 10:44:21;;;;;;;3.77;3.57;;;3.50;49.30;;;;;;4966887;28;20826;-68
2021/01/27 10:46:48;;;;;;;3.60;3.30;;;3.30;49.30;;;;;;5015823;28;20459;-69
2021/01/27 10:49:14;;;;;;;3.73;3.53;;;3.20;48.90;;;;;;5015898;28;20459;-68
2021/01/27 10:51:43;;;;;;;3.80;3.60;;;3.10;50.20;;;;;;5016099;28;20461;-68
2021/01/27 10:54:09;;;;;;;4.60;4.20;;;3.20;50.20;;;;;;5016230;28;20242;-69
2021/01/27 10:56:34;;;;;;;4.00;3.80;;;3.30;50.10;;;;;;5015183;28;20865;-68
2021/01/27 10:59:00;;;;;;;4.57;4.17;;;3.30;49.80;;;;;;5014320;28;20497;-66
2021/01/27 11:01:25;;;;;;;7.73;4.57;;;3.30;50.40;;;;;;5015794;28;20231;-66
2021/01/27 11:03:51;;;;;;;5.27;4.60;;;3.50;51.10;;;;;;5015840;28;20227;-67
2021/01/27 11:06:18;;;;;;;4.20;3.90;;;3.80;48.70;;;;;;5015852;28;20723;-68
2021/01/27 11:08:45;;;;;;;4.03;3.77;;;4.00;48.50;;;;;;5015474;28;20229;-66
2021/01/27 11:11:12;;;;;;;3.57;3.37;;;4.10;45.80;;;;;;5015968;28;20468;-68
2021/01/27 11:13:38;;;;;;;4.27;3.90;;;3.70;47.90;;;;;;5014919;28;20960;-67
2021/01/27 11:16:06;;;;;;;3.87;3.57;;;3.80;48.80;;;;;;5015373;28;20619;-67
2021/01/27 11:18:33;;;;;;;4.07;3.80;;;4.00;48.40;;;;;;5013797;28;20228;-66
2021/01/27 11:20:59;;;;;;;4.27;3.97;;;4.00;48.40;;;;;;5015754;28;20454;-66
2021/01/27 11:23:25;;;;;;;3.43;3.20;;;3.70;49.10;;;;;;5015167;28;20455;-66
2021/01/27 11:25:53;;;;;;;4.10;3.80;;;4.00;47.70;;;;;;5016535;28;20511;-67
2021/01/27 11:28:19;;;;;;;4.00;3.80;;;4.00;47.90;;;;;;5014841;28;20908;-66
2021/01/27 11:30:45;;;;;;;3.40;3.20;;;4.20;47.70;;;;;;5015882;28;20910;-66
2021/01/27 11:33:11;;;;;;;4.63;4.23;;;4.20;47.60;;;;;;5015742;28;20475;-65
2021/01/27 11:35:36;;;;;;;3.40;3.10;;;3.90;48.00;;;;;;5015237;28;20220;-66
2021/01/27 11:38:02;;;;;;;4.00;3.80;;;3.90;47.40;;;;;;5014554;28;20477;-66
2021/01/27 11:40:28;;;;;;;3.37;3.17;;;3.60;47.80;;;;;;5015626;28;20605;-66
2021/01/27 11:42:54;;;;;;;3.50;3.27;;;3.60;50.60;;;;;;4999739;28;20559;-68
2021/01/27 11:45:21;;;;;;;3.43;3.23;;;3.90;48.70;;;;;;4995477;28;20220;-65
2021/01/27 11:47:47;;;;;;;3.80;3.60;;;3.80;48.50;;;;;;5002560;28;20227;-68
2021/01/27 11:50:14;;;;;;;2.97;2.87;;;4.10;47.00;;;;;;5015937;28;20450;-68
2021/01/27 11:52:39;;;;;;;3.20;3.00;;;3.90;46.70;;;;;;5015381;28;20493;-67
2021/01/27 11:55:06;;;;;;;3.53;3.23;;;3.90;48.50;;;;;;5014856;28;20447;-65
2021/01/27 11:57:31;;;;;;;3.07;2.63;;;4.10;46.50;;;;;;5014374;28;20238;-67
2021/01/27 11:59:57;;;;;;;3.27;2.97;;;4.20;46.30;;;;;;5015384;28;20443;-66
2021/01/27 12:02:22;;;;;;;3.43;3.23;;;4.30;46.00;;;;;;5015541;28;20220;-66
2021/01/27 12:04:48;;;;;;;3.03;2.83;;;4.50;46.60;;;;;;5015309;28;20228;-66
2021/01/27 12:07:13;;;;;;;3.40;3.10;;;4.30;45.20;;;;;;5015105;28;20240;-64
2021/01/27 12:09:39;;;;;;;2.90;2.70;;;4.00;45.90;;;;;;5015244;28;20232;-66
2021/01/27 12:12:06;;;;;;;3.27;2.97;;;4.20;45.80;;;;;;5015586;28;20252;-66
2021/01/27 12:14:32;;;;;;;3.00;2.80;;;4.10;48.30;;;;;;5015787;28;20228;-66
2021/01/27 12:16:58;;;;;;;2.60;2.50;;;4.10;47.50;;;;;;5015213;28;20984;-64
2021/01/27 12:19:24;;;;;;;3.40;3.20;;;3.70;47.20;;;;;;5014297;28;20232;-63
2021/01/27 12:21:49;;;;;;;3.07;2.87;;;3.90;49.40;;;;;;5014114;28;20710;-63
2021/01/27 12:24:15;;;;;;;3.27;3.00;;;4.10;48.20;;;;;;5015000;28;20285;-64
2021/01/27 12:26:41;;;;;;;6.80;3.27;;;4.20;47.70;;;;;;5015061;28;20231;-64
2021/01/27 12:29:07;;;;;;;4.17;3.43;;;4.10;46.30;;;;;;5014902;28;20327;-61
2021/01/27 12:31:33;;;;;;;6.73;6.13;;;4.10;47.50;;;;;;5019076;28;20455;-64
2021/01/27 12:33:58;;;;;;;3.63;3.43;;;4.20;48.00;;;;;;5019477;28;20466;-64
2021/01/27 12:36:24;;;;;;;6.37;5.80;;;3.90;47.40;;;;;;5018910;28;20340;-65
2021/01/27 12:38:50;;;;;;;3.60;3.40;;;3.80;49.70;;;;;;5017956;28;20235;-63
2021/01/27 12:41:15;;;;;;;5.00;4.60;;;3.80;48.50;;;;;;5017055;28;20964;-63
2021/01/27 12:43:41;;;;;;;4.00;2.97;;;4.10;51.00;;;;;;5018290;28;20228;-64
2021/01/27 12:46:06;;;;;;;4.67;3.30;;;4.30;47.70;;;;;;5018612;28;20232;-64
2021/01/27 12:48:32;;;;;;;3.23;2.97;;;4.30;49.10;;;;;;5018875;28;20228;-66
2021/01/27 12:50:59;;;;;;;3.23;2.90;;;4.40;48.80;;;;;;5019171;28;20228;-66
2021/01/27 12:53:25;;;;;;;2.80;2.60;;;4.60;47.90;;;;;;5018468;28;20247;-65
2021/01/27 12:55:52;;;;;;;3.30;3.10;;;4.10;48.10;;;;;;5018116;28;20479;-63
2021/01/27 12:58:17;;;;;;;3.37;3.17;;;4.00;50.70;;;;;;5017697;28;20451;-66
2021/01/27 13:00:43;;;;;;;3.20;3.00;;;4.20;52.10;;;;;;5018437;28;20565;-67
2021/01/27 13:03:08;;;;;;;3.40;3.30;;;4.30;49.60;;;;;;5018137;28;20228;-66
2021/01/27 13:05:34;;;;;;;3.73;3.43;;;4.50;50.60;;;;;;5018027;28;20691;-65
2021/01/27 13:07:59;;;;;;;4.47;3.07;;;4.50;50.50;;;;;;5017355;28;20663;-65
2021/01/27 13:10:25;;;;;;;3.17;2.97;;;4.60;47.90;;;;;;5017886;28;20725;-64
2021/01/27 13:12:51;;;;;;;3.27;3.07;;;4.40;50.40;;;;;;5017202;28;20228;-62
2021/01/27 13:15:19;;;;;;;3.50;3.20;;;4.00;49.80;;;;;;5017229;28;20228;-64
2021/01/27 13:17:46;;;;;;;3.57;3.27;;;4.00;50.10;;;;;;5016496;28;20763;-68
2021/01/27 13:20:15;;;;;;;4.00;3.53;;;4.20;50.50;;;;;;5017360;28;20968;-68
2021/01/27 13:22:41;;;;;;;4.80;4.40;;;3.90;50.80;;;;;;5017315;28;20459;-66
2021/01/27 13:25:08;;;;;;;3.87;3.67;;;4.00;52.00;;;;;;5017707;28;20454;-63
2021/01/27 13:27:34;;;;;;;4.03;3.70;;;4.00;50.30;;;;;;5016211;28;20236;-64